Cooperstown, ND

2:56 PM CDT on July 26, 2017 (GMT -0500)
Cooperstown

Weather History for KS32 - January, 2013

Change the Weather History Date:

Tuesday, January 8, 2013

  Actual Average (KJMS) Record (KJMS)
Temperature  
Mean Temperature 18 °F -  
Max Temperature 33 °F 13 °F 54 °F (2002)
Min Temperature 3 °F -5 °F -31 °F (1977)
Degree Days  
Heating Degree Days 47    
Moisture  
Dew Point 20 °F    
Average Humidity 92    
Maximum Humidity 100    
Minimum Humidity 75    
Precipitation  
Precipitation 0.00 in - - ()
Sea Level Pressure  
Sea Level Pressure 29.69 in    
Wind  
Wind Speed 13 mph (SW)    
Max Wind Speed 36 mph    
Max Gust Speed 44 mph    
Visibility 10 miles    
Events Rain , Snow    
Averages and records for this station are not official NWS values.
T = Trace of Precipitation, MM = Missing Value Source: NWS Daily Summary

Daily Weather History Graph

Daily Weather History Graph

Search for Another Location

Airport or City:

Trip Planner

Search our weather history database for the weather conditions in past years. The results will help you decide how hot, cold, wet, or windy it might be!

Date:

Astronomy

Jan. 08, 2013 Rise Set
Actual Time 8:18 AM CST 5:00 PM CST
Civil Twilight 7:43 AM CST 5:35 PM CST
Nautical Twilight 7:04 AM CST 6:14 PM CST
Astronomical Twilight 6:27 AM CST 6:51 PM CST
Moon 4:52 AM CST (1/8) 2:04 PM CST (1/8)
Length of Visible Light 9h 52m
Length of Day
8h 41m
Waning Crescent, 13% of the Moon is Illuminated
Jan 8
Waning Crescent
Jan 11
New
Jan 18
First Quarter
Jan 26
Full
Feb 3
Last Quarter

Hourly Weather History & Observations

Time (CST) Temp. Windchill Dew Point Humidity Pressure Visibility Wind Dir Wind Speed Gust Speed Precip Events Conditions
12:15 AM 5.0 °F -4.1 °F 5.0 °F 100% 29.81 in 10.0 mi SE 4.6 mph - N/A   Clear
12:35 AM 6.8 °F -3.5 °F 5.0 °F 92% 29.81 in 10.0 mi South 5.8 mph - N/A   Clear
12:55 AM 5.0 °F -5.6 °F 5.0 °F 100% 29.80 in 10.0 mi SSE 5.8 mph - N/A   Clear
1:15 AM 3.2 °F -10.3 °F 1.4 °F 92% 29.80 in 7.0 mi SSE 8.1 mph - N/A   Clear
1:35 AM 5.0 °F -10.0 °F 5.0 °F 100% 29.80 in 10.0 mi SSE 10.4 mph - N/A Snow Light Snow
1:55 AM 3.2 °F -10.3 °F 1.4 °F 92% 29.80 in 10.0 mi South 8.1 mph - N/A   Clear
2:15 AM 6.8 °F -6.9 °F 6.8 °F 100% 29.80 in 10.0 mi South 9.2 mph - N/A   Clear
2:35 AM 5.0 °F -4.1 °F 5.0 °F 100% 29.80 in 10.0 mi SSE 4.6 mph - N/A   Clear
2:55 AM 6.8 °F -5.9 °F 6.8 °F 100% 29.79 in 10.0 mi South 8.1 mph - N/A   Clear
3:15 AM 6.8 °F -5.9 °F 5.0 °F 92% 29.78 in 10.0 mi South 8.1 mph - N/A   Clear
3:35 AM 6.8 °F -6.9 °F 5.0 °F 92% 29.77 in 10.0 mi South 9.2 mph - N/A   Clear
3:55 AM 5.0 °F -10.0 °F 5.0 °F 100% 29.76 in 10.0 mi South 10.4 mph - N/A   Clear
4:15 AM 5.0 °F -9.1 °F 3.2 °F 92% 29.76 in 10.0 mi South 9.2 mph - N/A   Clear
4:35 AM 5.0 °F -6.9 °F 3.2 °F 92% 29.75 in 10.0 mi South 6.9 mph - N/A   Clear
4:55 AM 5.0 °F -4.1 °F 5.0 °F 100% 29.74 in 10.0 mi SSE 4.6 mph - N/A   Clear
5:15 AM 5.0 °F -5.6 °F 5.0 °F 100% 29.73 in 10.0 mi SSE 5.8 mph - N/A   Clear
5:35 AM 6.8 °F -4.8 °F 5.0 °F 92% 29.72 in 10.0 mi SE 6.9 mph - N/A   Clear
5:55 AM 8.6 °F -4.7 °F 8.6 °F 100% 29.70 in 10.0 mi SE 9.2 mph - N/A Snow Light Snow
6:15 AM 10.4 °F -2.4 °F 10.4 °F 100% 29.70 in 10.0 mi SSE 9.2 mph - N/A Snow Light Snow
6:35 AM 15.8 °F 1.4 °F 15.8 °F 100% 29.69 in 10.0 mi South 13.8 mph - N/A   Clear
6:55 AM 17.6 °F 4.3 °F 17.6 °F 100% 29.69 in 10.0 mi SSE 12.7 mph - N/A   Mostly Cloudy
7:15 AM 19.4 °F 6.6 °F 19.4 °F 100% 29.69 in 10.0 mi South 12.7 mph - N/A   Mostly Cloudy
7:35 AM 21.2 °F 7.3 °F 21.2 °F 100% 29.68 in 10.0 mi South 16.1 mph - N/A   Clear
7:55 AM 23.0 °F 10.1 °F 23.0 °F 100% 29.68 in 10.0 mi South 15.0 mph - N/A   Clear
8:15 AM 23.0 °F 9.6 °F 23.0 °F 100% 29.68 in 10.0 mi South 16.1 mph - N/A   Partly Cloudy
8:35 AM 24.8 °F 11.5 °F 24.8 °F 100% 29.68 in 10.0 mi South 17.3 mph - N/A   Scattered Clouds
8:55 AM 24.8 °F 11.5 °F 23.0 °F 93% 29.69 in 10.0 mi South 17.3 mph - N/A   Mostly Cloudy
9:15 AM 26.6 °F 14.3 °F 23.0 °F 86% 29.68 in 10.0 mi South 16.1 mph - N/A   Mostly Cloudy
9:35 AM 26.6 °F 11.7 °F 23.0 °F 86% 29.68 in 9.0 mi South 24.2 mph 29.9 mph N/A   Mostly Cloudy
9:55 AM 28.4 °F 15.1 °F 24.8 °F 86% 29.66 in 10.0 mi South 20.7 mph 26.5 mph N/A   Mostly Cloudy
10:15 AM 28.4 °F 15.4 °F 24.8 °F 86% 29.66 in 10.0 mi South 19.6 mph - N/A   Overcast
10:35 AM 30.2 °F 16.8 °F 24.8 °F 80% 29.65 in 10.0 mi South 23.0 mph - N/A   Overcast
10:55 AM 30.2 °F 16.2 °F 24.8 °F 80% 29.63 in 10.0 mi South 25.3 mph 34.5 mph N/A   Mostly Cloudy
11:15 AM 30.2 °F 17.1 °F 24.8 °F 80% 29.63 in 10.0 mi South 21.9 mph 29.9 mph N/A   Scattered Clouds
11:35 AM 30.2 °F 17.4 °F 26.6 °F 86% 29.62 in 10.0 mi South 20.7 mph 25.3 mph N/A   Mostly Cloudy
11:55 AM 30.2 °F 17.1 °F 26.6 °F 86% 29.61 in 10.0 mi South 21.9 mph - N/A   Scattered Clouds
12:35 PM 32.0 °F 20.1 °F 26.6 °F 80% 29.60 in 10.0 mi SSW 19.6 mph - N/A   Mostly Cloudy
12:55 PM 28.4 °F 16.2 °F 28.4 °F 100% 29.60 in 0.8 mi SSW 17.3 mph - N/A Rain Light Freezing Rain
1:15 PM 28.4 °F 17.5 °F 28.4 °F 100% 29.59 in 2.0 mi SSW 13.8 mph - N/A Rain Light Freezing Rain
1:55 PM 30.2 °F 20.2 °F 30.2 °F 100% 29.59 in 10.0 mi SSW 12.7 mph - N/A   Mostly Cloudy
2:15 PM 32.0 °F 22.5 °F 32.0 °F 100% 29.59 in 10.0 mi SW 12.7 mph - N/A   Overcast
2:35 PM 32.0 °F 22.5 °F 32.0 °F 100% 29.60 in 10.0 mi WSW 12.7 mph - N/A   Overcast
2:55 PM 33.8 °F 22.8 °F 32.0 °F 93% 29.61 in 10.0 mi WNW 18.4 mph 26.5 mph N/A   Overcast
3:15 PM 33.8 °F 23.5 °F 32.0 °F 93% 29.61 in 10.0 mi WNW 16.1 mph 23.0 mph N/A   Overcast
3:35 PM 33.8 °F 23.5 °F 32.0 °F 93% 29.61 in 10.0 mi West 16.1 mph - N/A   Mostly Cloudy
3:55 PM 32.0 °F 21.6 °F 30.2 °F 93% 29.62 in 10.0 mi West 15.0 mph - N/A   Clear
4:15 PM 32.0 °F 22.1 °F 28.4 °F 87% 29.62 in 10.0 mi West 13.8 mph - N/A   Clear
4:35 PM 30.2 °F 19.3 °F 28.4 °F 93% 29.63 in 10.0 mi West 15.0 mph - N/A   Clear
4:55 PM 28.4 °F 17.0 °F 26.6 °F 93% 29.64 in 10.0 mi West 15.0 mph - N/A   Clear
5:15 PM 26.6 °F 15.7 °F 26.6 °F 100% 29.65 in 10.0 mi West 12.7 mph - N/A   Clear
5:35 PM 24.8 °F 15.3 °F 24.8 °F 100% 29.65 in 10.0 mi West 9.2 mph - N/A   Clear
5:55 PM 24.8 °F 13.4 °F 24.8 °F 100% 29.66 in 10.0 mi West 12.7 mph - N/A   Clear
6:15 PM 24.8 °F 12.4 °F 24.8 °F 100% 29.67 in 10.0 mi West 15.0 mph - N/A   Clear
6:35 PM 24.8 °F 11.5 °F 24.8 °F 100% 29.67 in 10.0 mi West 17.3 mph - N/A   Clear
6:55 PM 26.6 °F 13.4 °F 24.8 °F 93% 29.68 in 10.0 mi West 18.4 mph - N/A   Clear
7:15 PM 26.6 °F 14.3 °F 24.8 °F 93% 29.68 in 10.0 mi West 16.1 mph - N/A   Clear
7:35 PM 28.4 °F 15.4 °F 26.6 °F 93% 29.69 in 10.0 mi West 19.6 mph - N/A   Clear
7:55 PM 30.2 °F 17.4 °F 24.8 °F 80% 29.69 in 10.0 mi West 20.7 mph 26.5 mph N/A   Clear
8:15 PM 32.0 °F 20.1 °F 26.6 °F 80% 29.69 in 10.0 mi West 19.6 mph - N/A   Partly Cloudy
8:35 PM 32.0 °F 20.5 °F 26.6 °F 80% 29.70 in 10.0 mi West 18.4 mph 24.2 mph N/A   Clear
8:55 PM 30.2 °F 18.1 °F 24.8 °F 80% 29.70 in 10.0 mi West 18.4 mph - N/A   Clear
9:15 PM 28.4 °F 16.2 °F 24.8 °F 86% 29.69 in 10.0 mi West 17.3 mph 24.2 mph N/A   Partly Cloudy
9:35 PM 32.0 °F 17.9 °F 24.8 °F 75% 29.68 in 10.0 mi West 28.8 mph - N/A   Mostly Cloudy
9:55 PM 32.0 °F 17.2 °F 26.6 °F 80% 29.68 in 8.0 mi West 32.2 mph 38.0 mph N/A   Partly Cloudy
10:15 PM 32.0 °F 17.4 °F 26.6 °F 80% 29.70 in 5.0 mi West 31.1 mph 38.0 mph N/A   Partly Cloudy
10:35 PM 32.0 °F 16.5 °F 26.6 °F 80% 29.71 in 5.0 mi West 35.7 mph 42.6 mph N/A   Mostly Cloudy
10:55 PM 30.2 °F 14.5 °F 26.6 °F 86% 29.71 in 5.0 mi West 33.4 mph 40.3 mph N/A   Mostly Cloudy
11:15 PM 30.2 °F 15.9 °F 26.6 °F 86% 29.73 in 10.0 mi West 26.5 mph 38.0 mph N/A   Scattered Clouds
11:35 PM 28.4 °F 13.5 °F 26.6 °F 93% 29.74 in 10.0 mi West 26.5 mph 36.8 mph N/A   Mostly Cloudy
11:55 PM 28.4 °F 11.6 °F 24.8 °F 86% 29.75 in 10.0 mi WNW 35.7 mph 43.7 mph N/A   Overcast